Yuzhno-Sakhalinsk Airport
UHSS : now visible

Airfield :











YOU CAN JOIN US ON...

 
LOGIN :

Register | Disclaimer

   EN    FR    IT 

 









Legend :    VFR   Marginal VFR   IFR   Intensive IFR   Very Intensive IFR
Visi :
Ceiling :
>= 8 km
>= 3000ft
5 to 8 km
1000 to 3000 ft
1500m to 5 km
500 to 1000 ft
800 to 1500m
200 to 500 ft
< 800m
< 200 ft
Symbols :   Thunderstorms  Fog  Heavy snow  Heavy precipitations  Wind > 20 kt







- Airport Elevation : 59 ft
- IATA code : UUS


UHSS - Yuzhno-Sakhalinsk

CURRENT METAR :
  • 220230Z 30003G08MPS 220V360 9999 SCT035 10/01 Q1012 R01/70D NOSIG RMK QFE757/1010

EXPIRED METARs :
  • 220200Z 31005MPS 260V340 9999 SCT034 10/02 Q1012 R01/CLRD70 NOSIG RMK QFE758/1010
  • 220130Z 30004MPS 260V340 9999 BKN030 10/02 Q1012 R01/CLRD70 NOSIG RMK MT OBSC QFE758/1010
  • 220100Z 33002MPS 280V020 9999 BKN028 08/03 Q1012 R01/CLRD70 NOSIG RMK MT OBSC QFE758/1010
  • 220030Z 25002MPS 210V310 9999 BKN021 07/03 Q1012 R01/70D NOSIG RMK MT OBSC QFE758/1011
  • 220000Z 27001MPS 9999 BKN020 07/03 Q1012 R01/CLRD70 NOSIG RMK MT OBSC QFE758/1011

TAF TAF UHSS
Valid from the 22 at 03:00 until the 23 at 09:00 UTC


220200Z 2203/2309 27003MPS 9999 BKN020CB
TEMPO 2203/2209 29005G10MPS
UHSS FIR / Asia



MET'MAP, your aeronautical weather chart ! - Copyright ORBIFLY December 2007 - Disclaimer

ORBIFLY MET'MAP TEAM :

Programming & Development : Alexandra Zaïnal
Concept & Development : Baudouin d'Aumeries
Co-Development & Prog : Marc-Olivier Méhu
Technical & hardware support : Manuel Goepfert

Contact : metmap@orbifly.com




SOURCES & CREDITS :

   NOAA       Earth
Advisory